sensor_id;sensor_type;location;lat;lon;timestamp;pressure;altitude;pressure_sealevel;temperature;humidity
84734;BME280;74957;48.082;17.260;2024-03-25T00:01:09;992.612;;;5.409;82.391
84734;BME280;74957;48.082;17.260;2024-03-25T00:06:08;992.65;;;5.54;82.391
84734;BME280;74957;48.082;17.260;2024-03-25T00:11:02;992.638;;;5.601;82.288
84734;BME280;74957;48.082;17.260;2024-03-25T00:16:15;992.541;;;5.742;81.628
84734;BME280;74957;48.082;17.260;2024-03-25T00:21:05;992.472;;;5.822;81.488
84734;BME280;74957;48.082;17.260;2024-03-25T00:26:02;992.453;;;5.842;81.384
84734;BME280;74957;48.082;17.260;2024-03-25T00:31:12;992.285;;;5.842;81.384
84734;BME280;74957;48.082;17.260;2024-03-25T00:36:05;992.289;;;5.903;81.281
84734;BME280;74957;48.082;17.260;2024-03-25T00:41:06;992.324;;;5.903;81.696
84734;BME280;74957;48.082;17.260;2024-03-25T00:46:14;992.295;;;5.903;81.592
84734;BME280;74957;48.082;17.260;2024-03-25T00:51:06;992.157;;;5.963;81.281
84734;BME280;74957;48.082;17.260;2024-03-25T00:56:04;992.013;;;5.973;81.073
84734;BME280;74957;48.082;17.260;2024-03-25T01:01:07;992.125;;;6.024;81.177
84734;BME280;74957;48.082;17.260;2024-03-25T01:06:04;992.064;;;6.074;80.829
84734;BME280;74957;48.082;17.260;2024-03-25T01:11:01;991.998;;;6.104;80.518
84734;BME280;74957;48.082;17.260;2024-03-25T01:16:04;992.007;;;6.034;80.658
84734;BME280;74957;48.082;17.260;2024-03-25T01:21:03;992.04;;;6.054;80.621
84734;BME280;74957;48.082;17.260;2024-03-25T01:26:05;992.073;;;6.024;80.865
84734;BME280;74957;48.082;17.260;2024-03-25T01:31:17;991.952;;;5.933;80.457
84734;BME280;74957;48.082;17.260;2024-03-25T01:36:05;992.099;;;5.842;80.762
84734;BME280;74957;48.082;17.260;2024-03-25T01:41:10;992.045;;;5.812;80.762
84734;BME280;74957;48.082;17.260;2024-03-25T01:46:10;992.026;;;5.822;80.865
84734;BME280;74957;48.082;17.260;2024-03-25T01:51:04;991.939;;;5.842;80.969
84734;BME280;74957;48.082;17.260;2024-03-25T01:56:02;991.846;;;5.862;81.073
84734;BME280;74957;48.082;17.260;2024-03-25T02:01:13;991.939;;;6.034;80.865
84734;BME280;74957;48.082;17.260;2024-03-25T02:06:09;992.0;;;6.175;81.86
84734;BME280;74957;48.082;17.260;2024-03-25T02:11:02;991.943;;;6.175;81.86
84734;BME280;74957;48.082;17.260;2024-03-25T02:16:01;991.899;;;6.205;81.964
84734;BME280;74957;48.082;17.260;2024-03-25T02:20:58;992.007;;;6.255;82.483
84734;BME280;74957;48.082;17.260;2024-03-25T02:26:03;991.986;;;6.215;81.86
84734;BME280;74957;48.082;17.260;2024-03-25T02:31:10;991.85;;;6.255;82.172
84734;BME280;74957;48.082;17.260;2024-03-25T02:36:06;992.079;;;6.295;82.135
84734;BME280;74957;48.082;17.260;2024-03-25T02:41:06;991.852;;;6.336;81.72
84734;BME280;74957;48.082;17.260;2024-03-25T02:46:11;991.968;;;6.366;81.616
84734;BME280;74957;48.082;17.260;2024-03-25T02:51:04;991.94;;;6.436;81.927
84734;BME280;74957;48.082;17.260;2024-03-25T02:56:04;992.009;;;6.447;81.824
84734;BME280;74957;48.082;17.260;2024-03-25T03:01:08;991.878;;;6.477;82.343
84734;BME280;74957;48.082;17.260;2024-03-25T03:06:04;991.992;;;6.467;82.446
84734;BME280;74957;48.082;17.260;2024-03-25T03:11:05;991.949;;;6.467;83.374
84734;BME280;74957;48.082;17.260;2024-03-25T03:16:11;991.862;;;6.396;82.959
84734;BME280;74957;48.082;17.260;2024-03-25T03:21:04;992.053;;;6.386;82.648
84734;BME280;74957;48.082;17.260;2024-03-25T03:26:01;991.906;;;6.386;83.063
84734;BME280;74957;48.082;17.260;2024-03-25T03:31:08;992.099;;;6.336;83.374
84734;BME280;74957;48.082;17.260;2024-03-25T03:36:03;992.1;;;6.235;83.307
84734;BME280;74957;48.082;17.260;2024-03-25T03:41:03;992.067;;;6.144;83.618
84734;BME280;74957;48.082;17.260;2024-03-25T03:46:18;992.196;;;6.084;83.826
84734;BME280;74957;48.082;17.260;2024-03-25T03:51:05;992.139;;;6.084;83.099
84734;BME280;74957;48.082;17.260;2024-03-25T03:56:04;992.028;;;6.175;82.892
84734;BME280;74957;48.082;17.260;2024-03-25T04:01:16;992.157;;;6.235;82.172
84734;BME280;74957;48.082;17.260;2024-03-25T04:06:10;992.247;;;6.255;82.172
84734;BME280;74957;48.082;17.260;2024-03-25T04:11:01;992.229;;;6.255;81.757
84734;BME280;74957;48.082;17.260;2024-03-25T04:16:08;992.153;;;6.235;81.964
84734;BME280;74957;48.082;17.260;2024-03-25T04:21:00;992.246;;;6.255;81.555
84734;BME280;74957;48.082;17.260;2024-03-25T04:26:03;992.232;;;6.255;81.86
84734;BME280;74957;48.082;17.260;2024-03-25T04:31:07;992.258;;;6.265;81.72
84734;BME280;74957;48.082;17.260;2024-03-25T04:36:05;992.349;;;6.265;81.311
84734;BME280;74957;48.082;17.260;2024-03-25T04:41:03;992.412;;;6.306;81.512
84734;BME280;74957;48.082;17.260;2024-03-25T04:46:10;992.238;;;6.295;81.824
84734;BME280;74957;48.082;17.260;2024-03-25T04:51:02;992.445;;;6.295;82.031
84734;BME280;74957;48.082;17.260;2024-03-25T04:56:06;992.541;;;6.295;82.135
84734;BME280;74957;48.082;17.260;2024-03-25T05:01:11;992.539;;;6.326;82.135
84734;BME280;74957;48.082;17.260;2024-03-25T05:06:06;992.604;;;6.336;81.927
84734;BME280;74957;48.082;17.260;2024-03-25T05:11:03;992.718;;;6.336;81.311
84734;BME280;74957;48.082;17.260;2024-03-25T05:16:08;992.574;;;6.396;81.0
84734;BME280;74957;48.082;17.260;2024-03-25T05:21:08;992.64;;;6.396;80.688
84734;BME280;74957;48.082;17.260;2024-03-25T05:26:04;992.838;;;6.477;80.792
84734;BME280;74957;48.082;17.260;2024-03-25T05:31:15;992.709;;;6.447;80.377
84734;BME280;74957;48.082;17.260;2024-03-25T05:36:14;992.802;;;6.447;80.072
84734;BME280;74957;48.082;17.260;2024-03-25T05:41:06;992.801;;;6.396;80.481
84734;BME280;74957;48.082;17.260;2024-03-25T05:46:13;992.915;;;6.326;80.481
84734;BME280;74957;48.082;17.260;2024-03-25T05:51:06;992.894;;;6.306;80.481
84734;BME280;74957;48.082;17.260;2024-03-25T05:56:08;992.848;;;6.285;81.104
84734;BME280;74957;48.082;17.260;2024-03-25T06:01:15;993.015;;;6.215;81.14
84734;BME280;74957;48.082;17.260;2024-03-25T06:06:12;993.026;;;6.215;81.659
84734;BME280;74957;48.082;17.260;2024-03-25T06:11:07;993.199;;;6.185;81.757
84734;BME280;74957;48.082;17.260;2024-03-25T06:16:09;992.964;;;6.205;81.86
84734;BME280;74957;48.082;17.260;2024-03-25T06:21:09;993.173;;;6.326;81.311
84734;BME280;74957;48.082;17.260;2024-03-25T06:26:08;993.219;;;6.477;81.512
84734;BME280;74957;48.082;17.260;2024-03-25T06:31:06;993.191;;;6.688;79.932
84734;BME280;74957;48.082;17.260;2024-03-25T06:36:07;993.227;;;6.99;79.547
84734;BME280;74957;48.082;17.260;2024-03-25T06:41:07;993.4;;;7.262;78.583
84734;BME280;74957;48.082;17.260;2024-03-25T06:46:16;993.326;;;7.444;78.961
84734;BME280;74957;48.082;17.260;2024-03-25T06:51:06;993.408;;;7.675;77.686
84734;BME280;74957;48.082;17.260;2024-03-25T06:56:08;993.523;;;7.826;77.24
84734;BME280;74957;48.082;17.260;2024-03-25T07:01:12;993.482;;;8.028;76.898
84734;BME280;74957;48.082;17.260;2024-03-25T07:06:10;993.659;;;8.159;74.738
84734;BME280;74957;48.082;17.260;2024-03-25T07:11:07;993.642;;;8.3;74.597
84734;BME280;74957;48.082;17.260;2024-03-25T07:16:13;993.578;;;9.095;72.339
84734;BME280;74957;48.082;17.260;2024-03-25T07:21:08;993.693;;;10.384;68.146
84734;BME280;74957;48.082;17.260;2024-03-25T07:26:07;993.609;;;10.535;66.278
84734;BME280;74957;48.082;17.260;2024-03-25T07:31:15;993.799;;;10.535;68.219
84734;BME280;74957;48.082;17.260;2024-03-25T07:36:07;993.815;;;10.334;66.718
84734;BME280;74957;48.082;17.260;2024-03-25T07:41:08;993.955;;;10.515;67.194
84734;BME280;74957;48.082;17.260;2024-03-25T07:46:16;993.918;;;11.693;63.367
84734;BME280;74957;48.082;17.260;2024-03-25T07:51:07;993.9;;;11.381;61.792
84734;BME280;74957;48.082;17.260;2024-03-25T07:56:08;994.057;;;11.15;63.525
84734;BME280;74957;48.082;17.260;2024-03-25T08:01:14;994.192;;;11.27;62.915
84734;BME280;74957;48.082;17.260;2024-03-25T08:06:07;994.015;;;11.532;62.885
84734;BME280;74957;48.082;17.260;2024-03-25T08:11:07;994.032;;;11.905;62.109
84734;BME280;74957;48.082;17.260;2024-03-25T08:16:21;993.905;;;11.321;61.584
84734;BME280;74957;48.082;17.260;2024-03-25T08:21:14;993.966;;;11.361;61.896
84734;BME280;74957;48.082;17.260;2024-03-25T08:26:12;994.025;;;11.633;61.53
84734;BME280;74957;48.082;17.260;2024-03-25T08:31:14;994.21;;;12.56;59.479
84734;BME280;74957;48.082;17.260;2024-03-25T08:36:09;994.066;;;12.862;57.312
84734;BME280;74957;48.082;17.260;2024-03-25T08:41:08;994.215;;;13.798;56.39
84734;BME280;74957;48.082;17.260;2024-03-25T08:46:16;994.103;;;14.654;53.851
84734;BME280;74957;48.082;17.260;2024-03-25T08:51:09;994.12;;;14.755;51.929
84734;BME280;74957;48.082;17.260;2024-03-25T08:56:12;994.163;;;14.825;52.411
84734;BME280;74957;48.082;17.260;2024-03-25T09:01:13;994.075;;;15.53;51.221
84734;BME280;74957;48.082;17.260;2024-03-25T09:06:11;994.171;;;14.886;51.801
84734;BME280;74957;48.082;17.260;2024-03-25T09:11:11;994.171;;;14.07;51.898
84734;BME280;74957;48.082;17.260;2024-03-25T09:16:09;994.134;;;12.711;53.064
84734;BME280;74957;48.082;17.260;2024-03-25T09:21:08;994.065;;;12.006;56.195
84734;BME280;74957;48.082;17.260;2024-03-25T09:26:09;994.079;;;11.734;57.037
84734;BME280;74957;48.082;17.260;2024-03-25T09:31:16;994.129;;;12.016;58.136
84734;BME280;74957;48.082;17.260;2024-03-25T09:36:10;994.15;;;11.754;56.836
84734;BME280;74957;48.082;17.260;2024-03-25T09:41:09;994.12;;;11.915;57.623
84734;BME280;74957;48.082;17.260;2024-03-25T09:46:14;994.028;;;11.573;57.477
84734;BME280;74957;48.082;17.260;2024-03-25T09:51:09;993.969;;;11.291;56.989
84734;BME280;74957;48.082;17.260;2024-03-25T09:56:10;994.082;;;11.119;57.935
84734;BME280;74957;48.082;17.260;2024-03-25T10:01:14;993.923;;;11.109;57.117
84734;BME280;74957;48.082;17.260;2024-03-25T10:06:11;994.048;;;11.24;57.397
84734;BME280;74957;48.082;17.260;2024-03-25T10:11:05;993.971;;;11.18;57.294
84734;BME280;74957;48.082;17.260;2024-03-25T10:16:11;993.979;;;11.502;58.801
84734;BME280;74957;48.082;17.260;2024-03-25T10:21:04;994.105;;;11.734;54.895
84734;BME280;74957;48.082;17.260;2024-03-25T10:26:09;993.984;;;12.096;56.171
84734;BME280;74957;48.082;17.260;2024-03-25T10:31:08;993.878;;;12.6;55.505
84734;BME280;74957;48.082;17.260;2024-03-25T10:36:10;994.006;;;12.831;53.955
84734;BME280;74957;48.082;17.260;2024-03-25T10:41:08;993.92;;;12.64;53.979
84734;BME280;74957;48.082;17.260;2024-03-25T10:46:09;993.852;;;12.922;52.832
84734;BME280;74957;48.082;17.260;2024-03-25T10:51:10;993.87;;;14.473;51.544
84734;BME280;74957;48.082;17.260;2024-03-25T10:56:10;993.84;;;15.198;49.951
84734;BME280;74957;48.082;17.260;2024-03-25T11:01:18;993.784;;;14.936;48.352
84734;BME280;74957;48.082;17.260;2024-03-25T11:06:08;993.879;;;13.506;49.304
84734;BME280;74957;48.082;17.260;2024-03-25T11:11:09;993.76;;;12.852;52.734
84734;BME280;74957;48.082;17.260;2024-03-25T11:16:25;993.765;;;12.419;55.225
84734;BME280;74957;48.082;17.260;2024-03-25T11:21:09;993.707;;;12.137;55.658
84734;BME280;74957;48.082;17.260;2024-03-25T11:26:16;993.767;;;11.935;55.786
84734;BME280;74957;48.082;17.260;2024-03-25T11:31:14;993.599;;;11.794;55.914
84734;BME280;74957;48.082;17.260;2024-03-25T11:36:04;993.845;;;11.603;57.55
84734;BME280;74957;48.082;17.260;2024-03-25T11:41:09;993.733;;;11.532;56.757
84734;BME280;74957;48.082;17.260;2024-03-25T11:46:13;993.81;;;11.734;56.531
84734;BME280;74957;48.082;17.260;2024-03-25T11:51:10;993.837;;;11.875;53.748
84734;BME280;74957;48.082;17.260;2024-03-25T11:56:05;993.72;;;11.865;52.014
84734;BME280;74957;48.082;17.260;2024-03-25T12:01:12;993.743;;;12.187;51.581
84734;BME280;74957;48.082;17.260;2024-03-25T12:06:09;993.566;;;12.237;49.646
84734;BME280;74957;48.082;17.260;2024-03-25T12:11:08;993.544;;;12.167;51.581
84734;BME280;74957;48.082;17.260;2024-03-25T12:16:16;993.522;;;12.086;50.97
84734;BME280;74957;48.082;17.260;2024-03-25T12:21:09;993.55;;;12.378;52.069
84734;BME280;74957;48.082;17.260;2024-03-25T12:26:10;993.508;;;12.61;50.11
84734;BME280;74957;48.082;17.260;2024-03-25T12:31:22;993.433;;;12.6;48.987
84734;BME280;74957;48.082;17.260;2024-03-25T12:36:11;993.394;;;12.318;49.316
84734;BME280;74957;48.082;17.260;2024-03-25T12:41:07;993.618;;;12.368;50.439
84734;BME280;74957;48.082;17.260;2024-03-25T12:46:15;993.443;;;12.237;51.685
84734;BME280;74957;48.082;17.260;2024-03-25T12:51:06;993.647;;;11.915;53.137
84734;BME280;74957;48.082;17.260;2024-03-25T12:56:11;993.618;;;11.291;58.624
84734;BME280;74957;48.082;17.260;2024-03-25T13:01:13;993.661;;;11.321;60.364
84734;BME280;74957;48.082;17.260;2024-03-25T13:06:12;993.756;;;11.391;62.372
84734;BME280;74957;48.082;17.260;2024-03-25T13:11:09;993.778;;;11.18;61.176
84734;BME280;74957;48.082;17.260;2024-03-25T13:16:08;993.669;;;11.321;61.792
84734;BME280;74957;48.082;17.260;2024-03-25T13:21:10;993.572;;;11.643;60.101
84734;BME280;74957;48.082;17.260;2024-03-25T13:26:09;993.57;;;12.086;58.008
84734;BME280;74957;48.082;17.260;2024-03-25T13:31:17;993.638;;;12.338;58.691
84734;BME280;74957;48.082;17.260;2024-03-25T13:36:11;993.702;;;12.368;57.977
84734;BME280;74957;48.082;17.260;2024-03-25T13:41:10;993.871;;;12.378;57.471
84734;BME280;74957;48.082;17.260;2024-03-25T13:46:14;993.795;;;12.378;55.225
84734;BME280;74957;48.082;17.260;2024-03-25T13:51:07;993.674;;;12.57;53.571
84734;BME280;74957;48.082;17.260;2024-03-25T13:56:08;993.632;;;13.033;53.418
84734;BME280;74957;48.082;17.260;2024-03-25T14:01:10;993.682;;;13.164;53.113
84734;BME280;74957;48.082;17.260;2024-03-25T14:06:10;993.63;;;13.345;53.088
84734;BME280;74957;48.082;17.260;2024-03-25T14:11:07;993.573;;;13.446;52.454
84734;BME280;74957;48.082;17.260;2024-03-25T14:16:08;993.494;;;13.486;52.148
84734;BME280;74957;48.082;17.260;2024-03-25T14:21:08;993.464;;;13.546;51.947
84734;BME280;74957;48.082;17.260;2024-03-25T14:26:03;993.383;;;13.698;51.617
84734;BME280;74957;48.082;17.260;2024-03-25T14:31:05;993.439;;;13.718;49.384
84734;BME280;74957;48.082;17.260;2024-03-25T14:36:08;993.529;;;13.617;49.2
84734;BME280;74957;48.082;17.260;2024-03-25T14:41:08;993.28;;;13.627;47.473
84734;BME280;74957;48.082;17.260;2024-03-25T14:46:15;993.54;;;13.557;49.609
84734;BME280;74957;48.082;17.260;2024-03-25T14:51:08;993.502;;;13.134;49.146
84734;BME280;74957;48.082;17.260;2024-03-25T14:56:10;993.573;;;12.65;49.701
84734;BME280;74957;48.082;17.260;2024-03-25T15:01:19;993.55;;;12.65;51.331
84734;BME280;74957;48.082;17.260;2024-03-25T15:06:09;993.492;;;12.741;51.41
84734;BME280;74957;48.082;17.260;2024-03-25T15:11:09;993.391;;;12.852;51.508
84734;BME280;74957;48.082;17.260;2024-03-25T15:16:16;993.482;;;12.862;50.897
84734;BME280;74957;48.082;17.260;2024-03-25T15:21:05;993.519;;;12.751;49.78
84734;BME280;74957;48.082;17.260;2024-03-25T15:26:08;993.558;;;12.63;49.902
84734;BME280;74957;48.082;17.260;2024-03-25T15:31:13;993.386;;;12.489;48.907
84734;BME280;74957;48.082;17.260;2024-03-25T15:36:08;993.432;;;12.519;50.72
84734;BME280;74957;48.082;17.260;2024-03-25T15:41:10;993.531;;;12.57;51.941
84734;BME280;74957;48.082;17.260;2024-03-25T15:46:16;993.548;;;12.61;52.045
84734;BME280;74957;48.082;17.260;2024-03-25T15:51:08;993.548;;;12.308;52.374
84734;BME280;74957;48.082;17.260;2024-03-25T15:56:10;993.448;;;12.116;53.217
84734;BME280;74957;48.082;17.260;2024-03-25T16:01:10;993.66;;;11.905;53.955
84734;BME280;74957;48.082;17.260;2024-03-25T16:05:58;993.511;;;11.834;53.644
84734;BME280;74957;48.082;17.260;2024-03-25T16:11:14;993.472;;;11.885;53.137
84734;BME280;74957;48.082;17.260;2024-03-25T16:16:08;993.471;;;11.784;53.162
84734;BME280;74957;48.082;17.260;2024-03-25T16:21:16;993.609;;;11.734;54.077
84734;BME280;74957;48.082;17.260;2024-03-25T16:26:06;993.379;;;11.613;53.876
84734;BME280;74957;48.082;17.260;2024-03-25T16:31:10;993.526;;;11.512;54.309
84734;BME280;74957;48.082;17.260;2024-03-25T16:36:07;993.685;;;11.351;54.846
84734;BME280;74957;48.082;17.260;2024-03-25T16:41:06;993.693;;;11.18;55.56
84734;BME280;74957;48.082;17.260;2024-03-25T16:46:02;993.602;;;10.968;56.097
84734;BME280;74957;48.082;17.260;2024-03-25T16:51:09;993.9;;;10.777;56.433
84734;BME280;74957;48.082;17.260;2024-03-25T16:56:08;993.715;;;10.586;56.866
84734;BME280;74957;48.082;17.260;2024-03-25T17:01:02;993.733;;;10.435;57.098
84734;BME280;74957;48.082;17.260;2024-03-25T17:06:03;993.763;;;10.203;56.921
84734;BME280;74957;48.082;17.260;2024-03-25T17:11:06;993.535;;;10.082;57.227
84734;BME280;74957;48.082;17.260;2024-03-25T17:16:13;993.765;;;10.012;57.251
84734;BME280;74957;48.082;17.260;2024-03-25T17:21:12;993.693;;;9.871;57.764
84734;BME280;74957;48.082;17.260;2024-03-25T17:26:05;993.62;;;9.689;57.892
84734;BME280;74957;48.082;17.260;2024-03-25T17:31:14;993.787;;;9.498;58.124
84734;BME280;74957;48.082;17.260;2024-03-25T17:36:01;993.72;;;9.286;58.667
84734;BME280;74957;48.082;17.260;2024-03-25T17:41:03;993.737;;;9.246;58.563
84734;BME280;74957;48.082;17.260;2024-03-25T17:46:13;993.574;;;9.176;58.868
84734;BME280;74957;48.082;17.260;2024-03-25T17:51:03;993.481;;;9.105;58.179
84734;BME280;74957;48.082;17.260;2024-03-25T17:56:04;993.582;;;8.984;58.282
84734;BME280;74957;48.082;17.260;2024-03-25T18:01:12;993.538;;;8.803;58.722
84734;BME280;74957;48.082;17.260;2024-03-25T18:06:07;993.416;;;8.773;58.105
84734;BME280;74957;48.082;17.260;2024-03-25T18:11:04;993.627;;;8.773;58.209
84734;BME280;74957;48.082;17.260;2024-03-25T18:16:14;993.668;;;8.702;58.923
84734;BME280;74957;48.082;17.260;2024-03-25T18:21:04;993.708;;;8.642;59.57
84734;BME280;74957;48.082;17.260;2024-03-25T18:26:02;993.693;;;8.43;59.082
84734;BME280;74957;48.082;17.260;2024-03-25T18:31:11;993.766;;;8.33;59.186
84734;BME280;74957;48.082;17.260;2024-03-25T18:36:06;993.788;;;8.279;59.698
84734;BME280;74957;48.082;17.260;2024-03-25T18:41:03;993.728;;;8.209;60.962
84734;BME280;74957;48.082;17.260;2024-03-25T18:46:09;993.86;;;8.048;60.754
84734;BME280;74957;48.082;17.260;2024-03-25T18:51:04;993.962;;;7.897;61.609
84734;BME280;74957;48.082;17.260;2024-03-25T18:56:06;994.059;;;7.595;64.41
84734;BME280;74957;48.082;17.260;2024-03-25T19:01:10;994.004;;;7.121;66.974
84734;BME280;74957;48.082;17.260;2024-03-25T19:06:08;994.112;;;6.618;69.824
84734;BME280;74957;48.082;17.260;2024-03-25T19:11:02;993.928;;;6.154;72.778
84734;BME280;74957;48.082;17.260;2024-03-25T19:16:12;994.058;;;6.054;74.53
84734;BME280;74957;48.082;17.260;2024-03-25T19:21:03;994.033;;;5.933;76.013
84734;BME280;74957;48.082;17.260;2024-03-25T19:26:07;994.089;;;5.893;77.045
84734;BME280;74957;48.082;17.260;2024-03-25T19:31:10;994.273;;;5.893;78.595
84734;BME280;74957;48.082;17.260;2024-03-25T19:36:03;994.17;;;5.822;78.699
84734;BME280;74957;48.082;17.260;2024-03-25T19:41:07;994.163;;;5.721;79.358
84734;BME280;74957;48.082;17.260;2024-03-25T19:46:08;994.032;;;5.54;80.115
84734;BME280;74957;48.082;17.260;2024-03-25T19:51:05;993.944;;;5.349;81.702
84734;BME280;74957;48.082;17.260;2024-03-25T19:56:06;994.094;;;5.278;82.22
84734;BME280;74957;48.082;17.260;2024-03-25T20:01:10;994.046;;;5.228;82.843
84734;BME280;74957;48.082;17.260;2024-03-25T20:06:06;994.045;;;5.278;82.739
84734;BME280;74957;48.082;17.260;2024-03-25T20:11:02;994.069;;;5.208;82.843
84734;BME280;74957;48.082;17.260;2024-03-25T20:16:08;994.11;;;5.027;82.88
84734;BME280;74957;48.082;17.260;2024-03-25T20:21:01;994.073;;;4.875;84.473
84734;BME280;74957;48.082;17.260;2024-03-25T20:26:06;994.21;;;4.815;84.576
84734;BME280;74957;48.082;17.260;2024-03-25T20:31:10;994.195;;;4.805;84.265
84734;BME280;74957;48.082;17.260;2024-03-25T20:36:10;994.315;;;4.654;85.443
84734;BME280;74957;48.082;17.260;2024-03-25T20:41:05;994.264;;;4.453;86.206
84734;BME280;74957;48.082;17.260;2024-03-25T20:46:12;994.15;;;4.261;87.384
84734;BME280;74957;48.082;17.260;2024-03-25T20:51:05;994.295;;;4.191;87.488
84734;BME280;74957;48.082;17.260;2024-03-25T20:56:07;994.199;;;4.04;87.946
84734;BME280;74957;48.082;17.260;2024-03-25T21:01:13;994.299;;;3.868;88.361
84734;BME280;74957;48.082;17.260;2024-03-25T21:06:04;994.495;;;3.828;89.337
84734;BME280;74957;48.082;17.260;2024-03-25T21:11:12;994.468;;;3.858;89.709
84734;BME280;74957;48.082;17.260;2024-03-25T21:16:13;994.368;;;3.858;89.606
84734;BME280;74957;48.082;17.260;2024-03-25T21:21:03;994.508;;;3.889;89.606
84734;BME280;74957;48.082;17.260;2024-03-25T21:26:05;994.471;;;3.828;89.752
84734;BME280;74957;48.082;17.260;2024-03-25T21:31:11;994.54;;;3.828;90.271
84734;BME280;74957;48.082;17.260;2024-03-25T21:36:03;994.32;;;3.828;90.582
84734;BME280;74957;48.082;17.260;2024-03-25T21:51:04;994.574;;;3.687;92.242
84734;BME280;74957;48.082;17.260;2024-03-25T21:56:08;994.552;;;3.657;92.139
84734;BME280;74957;48.082;17.260;2024-03-25T22:01:12;994.531;;;3.617;92.694
84734;BME280;74957;48.082;17.260;2024-03-25T22:11:09;994.541;;;3.466;92.59
84734;BME280;74957;48.082;17.260;2024-03-25T22:21:08;994.454;;;3.325;93.365
84734;BME280;74957;48.082;17.260;2024-03-25T22:26:06;994.608;;;3.315;93.573
84734;BME280;74957;48.082;17.260;2024-03-25T22:31:04;994.478;;;3.174;93.719
84734;BME280;74957;48.082;17.260;2024-03-25T22:36:04;994.537;;;3.163;94.031
84734;BME280;74957;48.082;17.260;2024-03-25T22:41:03;994.265;;;3.103;94.135
84734;BME280;74957;48.082;17.260;2024-03-25T22:46:07;994.333;;;3.073;94.446
84734;BME280;74957;48.082;17.260;2024-03-25T22:51:05;994.231;;;3.043;94.653
84734;BME280;74957;48.082;17.260;2024-03-25T22:56:05;994.222;;;3.012;94.653
84734;BME280;74957;48.082;17.260;2024-03-25T23:01:22;994.242;;;2.992;94.965
84734;BME280;74957;48.082;17.260;2024-03-25T23:06:01;994.279;;;2.992;94.757
84734;BME280;74957;48.082;17.260;2024-03-25T23:11:04;994.421;;;2.952;94.8
84734;BME280;74957;48.082;17.260;2024-03-25T23:16:29;994.189;;;2.892;94.904
84734;BME280;74957;48.082;17.260;2024-03-25T23:21:04;994.168;;;2.811;95.111
84734;BME280;74957;48.082;17.260;2024-03-25T23:26:05;994.1;;;2.74;95.05
84734;BME280;74957;48.082;17.260;2024-03-25T23:31:10;994.132;;;2.62;95.154
84734;BME280;74957;48.082;17.260;2024-03-25T23:36:02;994.066;;;2.529;96.033
84734;BME280;74957;48.082;17.260;2024-03-25T23:41:03;993.966;;;2.418;96.552
84734;BME280;74957;48.082;17.260;2024-03-25T23:46:14;993.907;;;2.307;96.802
84734;BME280;74957;48.082;17.260;2024-03-25T23:51:05;993.902;;;2.166;97.327
84734;BME280;74957;48.082;17.260;2024-03-25T23:56:03;993.646;;;2.046;97.784
